createdAt,value
2023-04-13T09:47:45.906Z,866.25
2023-04-13T09:55:13.865Z,787.50
2023-04-13T09:56:13.876Z,804.38
2023-04-13T10:11:36.302Z,860.63
2023-04-13T10:12:36.239Z,832.50
2023-04-13T10:23:46.202Z,967.50
2023-04-13T10:24:46.143Z,1029.38
2023-04-13T10:25:46.114Z,1063.13
2023-04-13T10:26:46.123Z,978.75
2023-04-13T10:27:46.078Z,939.38
2023-04-13T10:28:46.051Z,894.38
2023-04-13T10:29:46.057Z,866.25
2023-04-13T10:30:46.016Z,843.75
2023-04-13T10:31:46.008Z,770.63
2023-04-13T10:32:46.037Z,697.50
2023-04-13T10:33:45.960Z,624.38
2023-04-13T10:34:45.977Z,607.50
2023-04-13T10:35:45.942Z,646.88
2023-04-13T10:37:40.802Z,540.00
2023-04-13T10:38:40.781Z,472.50
2023-04-13T10:50:12.352Z,686.25
2023-04-13T10:51:12.310Z,810.00
2023-04-13T10:52:12.315Z,877.50
2023-04-13T10:53:12.277Z,855.00
2023-04-13T10:54:12.311Z,781.88
2023-04-13T10:55:12.278Z,731.25
2023-04-13T10:56:12.232Z,759.38
2023-04-13T10:57:12.233Z,838.13
2023-04-13T10:58:12.175Z,866.25
2023-04-13T10:59:12.203Z,916.88
2023-04-13T11:00:12.197Z,939.38
2023-04-13T11:01:12.122Z,871.88
2023-04-13T11:02:12.177Z,843.75
2023-04-13T11:03:12.393Z,810.00
2023-04-13T11:05:12.066Z,945.00
2023-04-13T11:06:12.056Z,945.00
2023-04-13T11:07:12.038Z,961.88
2023-04-13T11:08:12.046Z,933.75
2023-04-13T11:09:14.401Z,883.13
2023-04-13T11:10:12.007Z,770.63
2023-04-13T11:11:14.770Z,725.63
2023-04-13T11:12:11.954Z,652.50
2023-04-13T11:13:11.919Z,534.38
2023-04-13T11:17:38.078Z,641.25
2023-04-13T11:18:38.008Z,663.75
2023-04-13T11:19:37.985Z,731.25
2023-04-13T11:20:38.021Z,815.63
2023-04-13T11:21:37.991Z,883.13
2023-04-13T11:22:37.943Z,961.88
2023-04-13T11:23:37.915Z,1029.38
2023-04-13T11:24:37.904Z,973.13
2023-04-13T11:25:37.899Z,900.00
2023-04-13T11:26:38.668Z,860.63
2023-04-13T11:27:38.072Z,821.25
2023-04-13T11:28:37.845Z,765.00
2023-04-13T11:29:37.817Z,810.00
2023-04-13T11:30:37.821Z,838.13
2023-04-13T11:31:37.821Z,950.63
2023-04-13T11:32:37.843Z,956.25
2023-04-13T11:33:40.058Z,905.63
2023-04-13T11:34:37.770Z,883.13
2023-04-13T11:35:37.737Z,849.38
2023-04-13T11:36:37.738Z,860.63
2023-04-13T11:37:37.720Z,928.13
2023-04-13T11:38:37.680Z,939.38
2023-04-13T11:39:37.680Z,916.88
2023-04-13T11:40:37.667Z,905.63
2023-04-13T11:41:37.651Z,905.63
2023-04-13T11:42:37.619Z,905.63
2023-04-13T11:43:37.618Z,945.00
2023-04-13T11:44:37.595Z,933.75
2023-04-13T11:45:37.599Z,950.63
2023-04-13T11:46:37.625Z,990.00
2023-04-13T11:47:37.585Z,928.13
2023-04-13T11:48:37.551Z,787.50
2023-04-13T11:49:37.521Z,731.25
2023-04-13T11:50:37.510Z,495.00
2023-04-13T11:51:37.482Z,433.13
2023-04-13T12:02:30.558Z,725.63
2023-04-13T12:03:42.153Z,866.25
2023-04-13T12:04:29.591Z,1018.13
2023-04-13T12:05:29.948Z,1051.88
2023-04-13T12:06:29.966Z,1057.50
2023-04-13T12:07:29.944Z,1040.63
2023-04-13T12:08:29.762Z,984.38
2023-04-13T12:09:53.965Z,883.13
2023-04-13T12:10:38.163Z,956.25
2023-04-13T12:12:51.129Z,916.88
2023-04-13T12:14:48.015Z,866.25
2023-04-13T12:15:43.702Z,838.13
2023-04-13T12:17:39.396Z,675.00
2023-04-13T12:18:36.657Z,714.38
2023-04-13T12:19:30.488Z,720.00
2023-04-13T12:20:29.257Z,720.00
2023-04-13T12:21:29.282Z,759.38
2023-04-13T12:22:30.230Z,776.25
2023-04-13T12:23:29.177Z,691.88
2023-04-13T12:24:29.674Z,838.13
2023-04-13T12:25:35.524Z,866.25
2023-04-13T12:27:08.778Z,900.00
2023-04-13T12:27:29.069Z,725.63
2023-04-13T12:28:29.066Z,618.75
2023-04-13T12:29:29.047Z,540.00
2023-04-13T12:30:29.036Z,483.75
2023-04-13T12:31:29.029Z,489.38
2023-04-13T12:32:29.017Z,528.75
2023-04-13T12:33:28.961Z,1209.38
2023-04-13T12:34:28.956Z,1355.63
2023-04-13T12:35:28.967Z,646.88
2023-04-13T12:36:28.928Z,1771.88
2023-04-13T12:37:28.897Z,1996.88
2023-04-13T12:38:28.891Z,2233.13
2023-04-13T12:39:28.904Z,2446.88
2023-04-13T12:40:28.886Z,2430.00
2023-04-13T12:41:28.834Z,2368.13
2023-04-13T12:42:28.844Z,2643.75
2023-04-13T12:43:28.800Z,2525.63
2023-04-13T12:44:28.821Z,2548.13
2023-04-13T12:45:28.782Z,1445.63
2023-04-13T12:46:28.782Z,2565.00
2023-04-13T12:47:28.753Z,753.75
2023-04-13T12:48:28.725Z,607.50
2023-04-13T12:49:28.706Z,2626.88
2023-04-13T12:50:28.724Z,708.75
2023-04-13T12:51:28.704Z,1861.88
2023-04-13T12:52:28.667Z,2840.63
2023-04-13T12:53:28.640Z,2632.50
2023-04-13T12:54:28.676Z,1029.38
2023-04-13T12:55:28.617Z,731.25
2023-04-13T12:56:28.615Z,843.75
2023-04-13T12:57:28.581Z,877.50
2023-04-13T12:58:28.588Z,2407.50
2023-04-13T12:59:28.550Z,765.00
2023-04-13T13:00:28.558Z,821.25
2023-04-13T13:01:28.588Z,2767.50
2023-04-13T13:02:28.603Z,2773.13
2023-04-13T13:03:28.577Z,2947.50
2023-04-13T13:04:28.492Z,2548.13
2023-04-13T13:05:28.464Z,1046.25
2023-04-13T13:06:28.445Z,3414.38
2023-04-13T13:07:28.428Z,1721.25
2023-04-13T13:08:28.446Z,2463.75
2023-04-13T13:09:28.414Z,2143.13
2023-04-13T13:10:30.079Z,810.00
2023-04-13T13:11:28.411Z,725.63
2023-04-13T13:30:14.323Z,855.00
2023-04-13T13:31:14.315Z,1108.13
2023-04-13T13:32:14.364Z,748.13
2023-04-13T13:33:14.307Z,742.50
2023-04-13T13:34:14.283Z,781.88
2023-04-13T13:45:16.719Z,793.13
2023-04-13T13:46:16.693Z,815.63
2023-04-13T13:47:16.720Z,826.88
2023-04-13T13:48:16.640Z,849.38
2023-04-13T13:49:16.635Z,1035.00
2023-04-13T13:50:16.636Z,2536.88
2023-04-13T13:51:16.602Z,2514.38
2023-04-13T13:52:16.560Z,3127.50
2023-04-13T13:53:16.557Z,3195.00
2023-04-13T13:54:16.536Z,3116.25
2023-04-13T13:55:16.569Z,3155.63
2023-04-13T13:56:16.528Z,3256.88
2023-04-13T13:57:16.506Z,3330.00
2023-04-13T13:58:16.487Z,3408.75
2023-04-13T13:59:16.492Z,3307.50
2023-04-13T14:00:16.464Z,3200.63
2023-04-13T14:01:16.543Z,3161.25
2023-04-13T14:02:16.426Z,3251.25
2023-04-13T14:03:16.749Z,3037.50
2023-04-13T14:04:16.495Z,3144.38
2023-04-13T14:05:16.397Z,3093.75
2023-04-13T14:06:16.360Z,2531.25
2023-04-13T14:08:04.175Z,2525.63
2023-04-13T14:09:04.182Z,2581.88
2023-04-13T14:10:04.170Z,2542.50
2023-04-13T14:11:04.136Z,2418.75
2023-04-13T14:13:50.809Z,1220.63
2023-04-13T14:14:50.803Z,1636.88
2023-04-13T14:19:40.015Z,1968.75
2023-04-13T14:20:40.525Z,1636.88
2023-04-13T14:29:55.617Z,933.75
2023-04-13T14:30:55.570Z,1338.75
2023-04-13T14:31:55.569Z,2227.50
2023-04-13T14:32:55.676Z,2283.75
2023-04-13T14:33:55.547Z,2126.25
2023-04-13T14:34:55.548Z,2041.88
2023-04-13T14:35:55.498Z,832.50
2023-04-13T14:38:24.896Z,1631.25
2023-04-13T14:39:24.876Z,855.00
2023-04-13T14:40:24.900Z,2126.25
2023-04-13T14:41:24.863Z,1867.50
2023-04-13T14:42:24.843Z,1288.13
2023-04-13T14:43:24.844Z,1085.63
2023-04-13T14:44:24.795Z,1209.38
2023-04-13T14:45:24.817Z,736.88
2023-04-13T14:51:03.464Z,787.50
2023-04-13T14:52:03.521Z,2295.00
2023-04-13T14:53:03.412Z,1029.38
2023-04-13T14:54:03.422Z,1693.13
2023-04-13T14:55:03.387Z,1957.50
2023-04-13T14:56:03.369Z,1507.50
2023-04-13T14:57:03.348Z,1603.13
2023-04-13T14:58:03.363Z,2323.13
2023-04-13T14:59:03.664Z,2351.25
2023-04-13T15:00:03.423Z,2345.63
2023-04-13T15:01:03.318Z,2351.25
2023-04-13T15:02:03.373Z,2193.75
2023-04-13T15:03:03.490Z,2165.63
2023-04-13T15:04:12.766Z,2176.88
2023-04-13T15:05:03.269Z,2188.13
2023-04-13T15:06:04.492Z,2171.25
2023-04-13T15:07:03.229Z,2205.00
2023-04-13T15:08:03.225Z,2176.88
2023-04-13T15:09:03.522Z,2041.88
2023-04-13T15:10:03.249Z,1732.50
2023-04-13T15:11:03.213Z,1687.50
2023-04-13T15:12:03.176Z,1293.75
2023-04-13T15:13:03.176Z,1299.38
2023-04-13T15:14:03.128Z,1451.25
2023-04-13T15:15:03.143Z,1535.63
2023-04-13T15:16:03.181Z,1687.50
2023-04-13T15:17:03.161Z,1811.25
2023-04-13T15:18:03.631Z,1732.50
2023-04-13T15:19:03.350Z,1620.00
2023-04-13T15:20:03.149Z,1524.38
2023-04-13T15:21:03.059Z,1260.00
2023-04-13T15:22:03.062Z,888.75
2023-04-13T15:23:03.007Z,697.50
2023-04-13T15:24:03.005Z,663.75
2023-04-13T15:25:03.010Z,624.38
2023-04-13T15:26:03.031Z,607.50
2023-04-13T15:27:02.983Z,596.25
2023-04-13T15:28:02.977Z,601.88
2023-04-13T15:29:02.954Z,607.50
2023-04-13T15:30:03.169Z,703.13
2023-04-13T15:31:03.013Z,928.13
2023-04-13T15:32:02.951Z,1220.63
2023-04-13T15:33:03.033Z,1288.13
2023-04-13T15:34:02.874Z,1321.88
2023-04-13T15:35:02.902Z,1631.25
2023-04-13T15:36:02.867Z,1760.63
2023-04-13T15:37:02.847Z,1878.75
2023-04-13T15:38:02.858Z,1951.88
2023-04-13T15:39:03.004Z,1912.50
2023-04-13T15:40:02.921Z,1878.75
2023-04-13T15:41:02.790Z,1906.88
2023-04-13T15:42:02.782Z,1867.50
2023-04-13T15:43:02.764Z,1867.50
2023-04-13T15:44:02.758Z,1816.88
2023-04-13T15:45:02.739Z,1501.88
2023-04-13T15:46:02.809Z,1698.75
2023-04-13T15:47:03.293Z,1468.13
2023-04-13T15:48:02.860Z,1006.88
2023-04-13T15:50:01.421Z,624.38
2023-04-13T15:51:01.349Z,652.50
2023-04-13T15:52:01.341Z,1108.13
2023-04-13T15:55:49.649Z,2053.13
2023-04-13T15:56:53.702Z,2103.75
2023-04-13T15:58:12.888Z,1738.13
2023-04-13T15:59:12.846Z,1794.38
2023-04-13T16:00:12.861Z,2131.88
2023-04-13T16:01:12.834Z,2030.63
2023-04-13T16:02:12.947Z,1653.75
2023-04-13T16:04:05.929Z,1715.63
2023-04-13T16:05:05.832Z,1771.88
2023-04-13T16:06:05.851Z,1805.63
2023-04-13T16:07:13.492Z,1918.13
2023-04-13T16:08:05.817Z,1906.88
2023-04-13T16:09:05.824Z,1946.25
2023-04-13T16:10:05.806Z,1985.63
2023-04-13T16:11:05.774Z,1946.25
2023-04-13T16:12:05.782Z,1366.88
2023-04-13T16:13:05.731Z,1890.00
2023-04-13T16:14:05.746Z,1608.75
2023-04-13T16:15:05.740Z,1395.00
2023-04-13T16:16:05.767Z,1175.63
2023-04-13T16:17:05.709Z,1350.00
2023-04-13T16:18:05.740Z,1575.00
2023-04-13T16:19:05.698Z,1603.13
2023-04-13T16:20:05.702Z,1378.13
2023-04-13T16:21:05.648Z,1445.63
2023-04-13T16:22:05.674Z,1423.13
2023-04-13T16:23:05.642Z,1125.00
2023-04-13T16:24:05.684Z,810.00
2023-04-13T16:29:34.488Z,663.75
2023-04-13T16:30:34.515Z,596.25
2023-04-13T16:31:55.199Z,523.13
2023-04-13T16:32:55.237Z,523.13
2023-04-13T16:34:49.886Z,540.00
2023-04-13T16:35:49.853Z,556.88
2023-04-13T16:36:49.880Z,596.25
2023-04-13T16:37:49.816Z,697.50
2023-04-13T16:38:49.843Z,855.00
2023-04-13T16:45:21.495Z,455.63
2023-04-13T16:46:21.501Z,461.25
2023-04-13T16:47:21.455Z,444.38
2023-04-13T16:48:21.427Z,461.25
2023-04-13T16:49:21.396Z,461.25
2023-04-13T16:50:21.393Z,433.13
